createdAt,value
2022-12-29T00:01:38.185Z,6.35
2022-12-29T00:04:14.462Z,6.34
2022-12-29T00:06:46.423Z,6.35
2022-12-29T00:09:18.138Z,6.36
2022-12-29T00:11:49.718Z,6.38
2022-12-29T00:14:37.960Z,6.39
2022-12-29T00:17:08.657Z,6.39
2022-12-29T00:19:57.347Z,6.39
2022-12-29T00:22:48.035Z,6.40
2022-12-29T00:25:48.103Z,6.43
2022-12-29T00:28:36.219Z,6.44
2022-12-29T00:31:31.402Z,6.45
2022-12-29T00:34:20.701Z,6.47
2022-12-29T00:36:51.396Z,6.47
2022-12-29T00:39:40.310Z,6.47
2022-12-29T00:42:29.566Z,6.46
2022-12-29T00:45:00.246Z,6.46
2022-12-29T00:47:31.002Z,6.45
2022-12-29T00:50:01.700Z,6.44
2022-12-29T00:52:32.606Z,6.43
2022-12-29T00:55:03.313Z,6.42
2022-12-29T00:57:33.979Z,6.42
2022-12-29T01:00:05.596Z,6.41
2022-12-29T01:02:36.233Z,6.41
2022-12-29T01:05:08.624Z,6.41
2022-12-29T01:07:39.377Z,6.42
2022-12-29T01:10:15.782Z,6.42
2022-12-29T01:12:48.819Z,6.44
2022-12-29T01:15:19.684Z,6.44
2022-12-29T01:17:50.816Z,6.45
2022-12-29T01:20:22.108Z,6.45
2022-12-29T01:22:52.902Z,6.46
2022-12-29T01:25:24.260Z,6.47
2022-12-29T01:27:55.086Z,6.46
2022-12-29T01:30:25.784Z,6.47
2022-12-29T01:32:57.691Z,6.48
2022-12-29T01:35:28.352Z,6.50
2022-12-29T01:37:59.066Z,6.50
2022-12-29T01:40:30.207Z,6.50
2022-12-29T01:43:00.887Z,6.50
2022-12-29T01:45:31.731Z,6.50
2022-12-29T01:48:07.322Z,6.50
2022-12-29T01:50:42.404Z,6.51
2022-12-29T01:53:18.445Z,6.51
2022-12-29T01:55:53.485Z,6.50
2022-12-29T01:58:28.711Z,6.50
2022-12-29T02:00:57.902Z,6.49
2022-12-29T02:03:31.626Z,6.48
2022-12-29T02:06:04.774Z,6.46
2022-12-29T02:08:35.593Z,6.44
2022-12-29T02:11:07.223Z,6.41
2022-12-29T02:13:38.546Z,6.38
2022-12-29T02:16:23.856Z,6.36
2022-12-29T02:19:03.161Z,6.37
2022-12-29T02:21:57.053Z,6.39
2022-12-29T02:25:06.679Z,6.40
2022-12-29T02:28:05.770Z,6.41
2022-12-29T02:30:45.120Z,6.42
2022-12-29T02:33:36.356Z,6.40
2022-12-29T02:36:20.507Z,6.39
2022-12-29T02:39:04.335Z,6.37
2022-12-29T02:41:48.986Z,6.34
2022-12-29T02:44:27.115Z,6.32
2022-12-29T02:47:07.254Z,6.30
2022-12-29T02:49:46.409Z,6.29
2022-12-29T02:52:22.343Z,6.29
2022-12-29T02:54:55.373Z,6.29
2022-12-29T02:57:35.930Z,6.29
2022-12-29T03:00:10.853Z,6.28
2022-12-29T03:03:04.892Z,6.28
2022-12-29T03:05:53.196Z,6.26
2022-12-29T03:08:31.060Z,6.23
2022-12-29T03:11:04.957Z,6.19
2022-12-29T03:14:03.266Z,6.15
2022-12-29T03:16:42.943Z,6.10
2022-12-29T03:19:21.959Z,6.06
2022-12-29T03:22:14.987Z,6.04
2022-12-29T03:24:49.820Z,6.00
2022-12-29T03:27:27.763Z,5.95
2022-12-29T03:30:02.739Z,5.91
2022-12-29T03:32:34.352Z,5.86
2022-12-29T03:35:06.618Z,5.79
2022-12-29T03:37:42.786Z,5.71
2022-12-29T03:40:13.825Z,5.61
2022-12-29T03:42:45.651Z,5.55
2022-12-29T03:45:17.336Z,5.49
2022-12-29T03:47:49.610Z,5.43
2022-12-29T03:50:20.679Z,5.36
2022-12-29T03:52:51.373Z,5.31
2022-12-29T03:55:22.101Z,5.27
2022-12-29T03:57:52.878Z,5.25
2022-12-29T04:00:31.913Z,5.24
2022-12-29T04:03:03.220Z,5.23
2022-12-29T04:05:34.192Z,5.22
2022-12-29T04:08:04.993Z,5.24
2022-12-29T04:10:36.260Z,5.26
2022-12-29T04:13:09.448Z,5.27
2022-12-29T04:15:40.270Z,5.25
2022-12-29T04:18:11.910Z,5.22
2022-12-29T04:21:00.444Z,5.19
2022-12-29T04:23:33.718Z,5.16
2022-12-29T04:26:04.670Z,5.13
2022-12-29T04:28:35.859Z,5.11
2022-12-29T04:31:18.103Z,5.10
2022-12-29T04:33:50.753Z,5.09
2022-12-29T04:36:27.790Z,5.09
2022-12-29T04:39:01.301Z,5.11
2022-12-29T04:41:32.246Z,5.09
2022-12-29T04:44:03.101Z,5.07
2022-12-29T04:46:42.912Z,5.04
2022-12-29T04:49:22.621Z,4.99
2022-12-29T04:52:15.989Z,4.95
2022-12-29T04:54:48.646Z,4.94
2022-12-29T04:57:22.967Z,4.94
2022-12-29T04:59:57.754Z,4.94
2022-12-29T05:02:29.206Z,4.95
2022-12-29T05:05:01.274Z,4.95
2022-12-29T05:07:34.456Z,4.92
2022-12-29T05:10:06.016Z,4.91
2022-12-29T05:12:38.702Z,4.91
2022-12-29T05:15:12.374Z,4.89
2022-12-29T05:17:43.228Z,4.87
2022-12-29T05:20:14.743Z,4.86
2022-12-29T05:22:46.289Z,4.86
2022-12-29T05:25:16.999Z,4.88
2022-12-29T05:28:04.907Z,4.90
2022-12-29T05:30:45.693Z,4.91
2022-12-29T05:33:16.988Z,4.90
2022-12-29T05:35:49.391Z,4.89
2022-12-29T05:38:20.199Z,4.88
2022-12-29T05:40:51.044Z,4.85
2022-12-29T05:43:42.009Z,4.81
2022-12-29T05:46:33.063Z,4.79
2022-12-29T05:49:22.305Z,4.78
2022-12-29T05:52:22.177Z,4.79
2022-12-29T05:54:53.397Z,4.78
2022-12-29T05:57:26.158Z,4.78
2022-12-29T06:00:09.839Z,4.78
2022-12-29T06:02:45.602Z,4.78
2022-12-29T06:05:17.825Z,4.79
2022-12-29T06:07:48.686Z,4.80
2022-12-29T06:10:21.161Z,4.81
2022-12-29T06:12:59.818Z,4.80
2022-12-29T06:15:30.594Z,4.82
2022-12-29T06:18:02.070Z,4.82
2022-12-29T06:20:32.920Z,4.82
2022-12-29T06:23:03.756Z,4.81
2022-12-29T06:25:36.964Z,4.79
2022-12-29T06:28:07.775Z,4.79
2022-12-29T06:30:40.871Z,4.81
2022-12-29T06:33:11.507Z,4.85
2022-12-29T06:35:42.181Z,4.90
2022-12-29T06:38:12.966Z,4.94
2022-12-29T06:40:46.161Z,4.98
2022-12-29T06:43:25.939Z,5.01
2022-12-29T06:46:22.968Z,5.03
2022-12-29T06:48:53.768Z,5.04
2022-12-29T06:51:24.410Z,5.04
2022-12-29T06:53:55.374Z,5.05
2022-12-29T06:56:26.129Z,5.05
2022-12-29T06:58:56.799Z,5.07
2022-12-29T07:01:28.246Z,5.08
2022-12-29T07:03:59.259Z,5.09
2022-12-29T07:06:30.000Z,5.08
2022-12-29T07:09:00.694Z,5.09
2022-12-29T07:11:31.377Z,5.12
2022-12-29T07:14:02.113Z,5.14
2022-12-29T07:16:35.288Z,5.17
2022-12-29T07:19:06.147Z,5.22
2022-12-29T07:21:36.807Z,5.25
2022-12-29T07:24:09.477Z,5.28
2022-12-29T07:26:40.294Z,5.33
2022-12-29T07:29:11.342Z,5.34
2022-12-29T07:31:42.655Z,5.37
2022-12-29T07:34:13.390Z,5.39
2022-12-29T07:36:44.070Z,5.41
2022-12-29T07:39:14.750Z,5.43
2022-12-29T07:41:45.489Z,5.45
2022-12-29T07:44:21.344Z,5.47
2022-12-29T07:47:16.801Z,5.52
2022-12-29T07:49:47.630Z,5.55
2022-12-29T07:52:18.341Z,5.58
2022-12-29T07:54:49.195Z,5.62
2022-12-29T07:57:20.000Z,5.65
2022-12-29T07:59:51.246Z,5.67
2022-12-29T08:02:22.119Z,5.68
2022-12-29T08:04:52.930Z,5.70
2022-12-29T08:07:23.745Z,5.73
2022-12-29T08:09:54.770Z,5.77
2022-12-29T08:12:25.615Z,5.82
2022-12-29T08:14:56.489Z,5.87
2022-12-29T08:17:27.234Z,5.93
2022-12-29T08:19:58.022Z,6.01
2022-12-29T08:22:28.993Z,6.09
2022-12-29T08:24:59.798Z,6.19
2022-12-29T08:27:30.744Z,6.29
2022-12-29T08:30:01.779Z,6.38
2022-12-29T08:32:32.647Z,6.44
2022-12-29T08:35:03.613Z,6.48
2022-12-29T08:37:35.607Z,6.54
2022-12-29T08:40:08.379Z,6.61
2022-12-29T08:42:39.207Z,6.69
2022-12-29T08:45:11.715Z,6.77
2022-12-29T08:47:42.785Z,6.85
2022-12-29T08:50:14.171Z,6.92
2022-12-29T08:52:44.922Z,6.95
2022-12-29T08:55:15.846Z,6.98
2022-12-29T08:57:46.701Z,7.01
2022-12-29T09:00:23.199Z,7.04
2022-12-29T09:02:55.150Z,7.06
2022-12-29T09:05:26.282Z,7.10
2022-12-29T09:07:57.473Z,7.13
2022-12-29T09:10:28.323Z,7.16
2022-12-29T09:12:59.136Z,7.20
2022-12-29T09:15:30.006Z,7.24
2022-12-29T09:18:00.841Z,7.29
2022-12-29T09:20:31.801Z,7.35
2022-12-29T09:23:02.703Z,7.43
2022-12-29T09:25:33.571Z,7.52
2022-12-29T09:28:08.781Z,7.61
2022-12-29T09:30:39.618Z,7.69
2022-12-29T09:33:10.447Z,7.77
2022-12-29T09:35:45.532Z,7.82
2022-12-29T09:38:16.985Z,7.85
2022-12-29T09:40:52.484Z,7.85
2022-12-29T09:43:45.499Z,7.85
2022-12-29T09:46:26.292Z,7.84
2022-12-29T09:49:09.742Z,7.85
2022-12-29T09:51:44.676Z,7.86
2022-12-29T09:54:31.229Z,7.90
2022-12-29T09:57:02.193Z,7.93
2022-12-29T09:59:41.532Z,7.93
2022-12-29T10:02:26.003Z,7.95
2022-12-29T10:04:57.041Z,7.95
2022-12-29T10:07:39.584Z,7.95
2022-12-29T10:10:22.497Z,7.96
2022-12-29T10:13:03.612Z,7.95
2022-12-29T10:15:48.569Z,7.96
2022-12-29T10:18:41.449Z,7.97
2022-12-29T10:21:21.529Z,7.97
2022-12-29T10:23:55.351Z,7.97
2022-12-29T10:26:29.503Z,7.96
2022-12-29T10:29:05.610Z,7.98
2022-12-29T10:31:44.982Z,8.00
2022-12-29T10:34:23.023Z,8.01
2022-12-29T10:37:04.803Z,8.01
2022-12-29T10:39:42.174Z,8.02
2022-12-29T10:42:28.350Z,8.02
2022-12-29T10:45:01.900Z,8.01
2022-12-29T10:47:37.186Z,8.03
2022-12-29T10:50:08.707Z,8.04
2022-12-29T10:52:42.808Z,8.06
2022-12-29T10:55:19.617Z,8.09
2022-12-29T10:57:51.681Z,8.12
2022-12-29T11:00:25.141Z,8.16
2022-12-29T11:03:11.212Z,8.18
2022-12-29T11:05:48.518Z,8.21
2022-12-29T11:08:22.346Z,8.25
2022-12-29T11:11:03.075Z,8.28
2022-12-29T11:13:39.280Z,8.30
2022-12-29T11:16:14.170Z,8.33
2022-12-29T11:18:50.207Z,8.37
2022-12-29T11:21:33.843Z,8.40
2022-12-29T11:24:07.662Z,8.42
2022-12-29T11:26:38.605Z,8.46
2022-12-29T11:29:25.665Z,8.48
2022-12-29T11:32:00.129Z,8.50
2022-12-29T11:34:36.686Z,8.54
2022-12-29T11:37:13.672Z,8.57
2022-12-29T11:39:53.711Z,8.59
2022-12-29T11:42:34.119Z,8.60
2022-12-29T11:45:16.685Z,8.62
2022-12-29T11:47:50.539Z,8.63
2022-12-29T11:50:25.187Z,8.64
2022-12-29T11:53:03.579Z,8.64
2022-12-29T11:55:35.017Z,8.65
2022-12-29T11:58:07.483Z,8.65
2022-12-29T12:00:41.926Z,8.65
2022-12-29T12:03:19.263Z,8.66
2022-12-29T12:05:56.594Z,8.69
2022-12-29T12:08:37.085Z,8.71
2022-12-29T12:11:14.560Z,8.72
2022-12-29T12:13:53.082Z,8.74
2022-12-29T12:16:29.539Z,8.75
2022-12-29T12:19:11.980Z,8.76
2022-12-29T12:21:46.284Z,8.77
2022-12-29T12:24:34.819Z,8.79
2022-12-29T12:27:15.333Z,8.82
2022-12-29T12:29:55.129Z,8.84
2022-12-29T12:32:30.170Z,8.86
2022-12-29T12:35:01.328Z,8.86
2022-12-29T12:37:55.031Z,8.87
2022-12-29T12:40:49.291Z,8.90
2022-12-29T12:43:38.946Z,8.92
2022-12-29T12:46:21.730Z,8.96
2022-12-29T12:49:14.719Z,9.00
2022-12-29T12:51:53.127Z,9.03
2022-12-29T12:54:41.192Z,9.07
2022-12-29T12:57:22.880Z,9.11
2022-12-29T13:00:04.242Z,9.13
2022-12-29T13:02:49.835Z,9.16
2022-12-29T13:05:40.720Z,9.19
2022-12-29T13:08:45.072Z,9.21
2022-12-29T13:11:25.589Z,9.24
2022-12-29T13:14:32.513Z,9.26
2022-12-29T13:17:12.465Z,9.28
2022-12-29T13:19:52.962Z,9.30
2022-12-29T13:22:31.476Z,9.30
2022-12-29T13:25:21.571Z,9.31
2022-12-29T13:27:57.150Z,9.34
2022-12-29T13:30:35.718Z,9.36
2022-12-29T13:33:21.401Z,9.38
2022-12-29T13:36:12.923Z,9.38
2022-12-29T13:38:49.098Z,9.39
2022-12-29T13:41:27.066Z,9.41
2022-12-29T13:44:00.062Z,9.42
2022-12-29T13:46:36.067Z,9.43
2022-12-29T13:49:10.820Z,9.43
2022-12-29T13:51:49.903Z,9.45
2022-12-29T13:54:33.954Z,9.45
2022-12-29T13:57:13.081Z,9.46
2022-12-29T13:59:53.089Z,9.45
2022-12-29T14:02:34.322Z,9.46
2022-12-29T14:05:08.064Z,9.45
2022-12-29T14:07:42.051Z,9.44
2022-12-29T14:10:31.419Z,9.43
2022-12-29T14:13:08.437Z,9.43
2022-12-29T14:15:43.557Z,9.43
2022-12-29T14:18:19.909Z,9.42
2022-12-29T14:21:03.400Z,9.41
2022-12-29T14:23:41.982Z,9.39
2022-12-29T14:26:18.658Z,9.39
2022-12-29T14:28:51.130Z,9.38
2022-12-29T14:31:42.423Z,9.37
2022-12-29T14:34:40.604Z,9.35
2022-12-29T14:37:27.888Z,9.35
2022-12-29T14:40:19.764Z,9.34
2022-12-29T14:42:52.778Z,9.33
2022-12-29T14:45:33.902Z,9.32
2022-12-29T14:48:23.251Z,9.32
2022-12-29T14:50:54.834Z,9.31
2022-12-29T14:53:51.209Z,9.32
2022-12-29T14:56:27.226Z,9.31
2022-12-29T14:59:01.353Z,9.33
2022-12-29T15:01:42.521Z,9.32
2022-12-29T15:04:22.804Z,9.33
2022-12-29T15:06:54.886Z,9.32
2022-12-29T15:09:32.382Z,9.31
2022-12-29T15:12:11.068Z,9.30
2022-12-29T15:14:53.915Z,9.29
2022-12-29T15:17:31.216Z,9.26
2022-12-29T15:20:15.867Z,9.24
2022-12-29T15:22:51.478Z,9.23
2022-12-29T15:25:22.803Z,9.24
2022-12-29T15:27:56.066Z,9.26
2022-12-29T15:30:27.343Z,9.27
2022-12-29T15:32:58.154Z,9.28
2022-12-29T15:35:32.758Z,9.27
2022-12-29T15:38:15.065Z,9.27
2022-12-29T15:40:47.690Z,9.24
2022-12-29T15:43:46.757Z,9.24
2022-12-29T15:46:18.437Z,9.22
2022-12-29T15:48:50.474Z,9.20
2022-12-29T15:51:27.449Z,9.19
2022-12-29T15:53:59.603Z,9.17
2022-12-29T15:56:32.743Z,9.14
2022-12-29T15:59:04.266Z,9.13
2022-12-29T16:01:37.789Z,9.10
2022-12-29T16:04:11.204Z,9.08
2022-12-29T16:06:50.126Z,9.05
2022-12-29T16:09:31.245Z,9.02
2022-12-29T16:12:05.095Z,8.98
2022-12-29T16:14:44.230Z,8.95
2022-12-29T16:17:20.363Z,8.94
2022-12-29T16:19:55.029Z,8.91
2022-12-29T16:22:31.508Z,8.90
2022-12-29T16:25:05.894Z,8.88
2022-12-29T16:27:41.907Z,8.86
2022-12-29T16:30:24.336Z,8.84
2022-12-29T16:33:01.476Z,8.81
2022-12-29T16:35:41.378Z,8.80
2022-12-29T16:38:17.646Z,8.79
2022-12-29T16:40:56.456Z,8.78
2022-12-29T16:43:29.659Z,8.77
2022-12-29T16:46:29.656Z,8.76
2022-12-29T16:49:01.190Z,8.76
2022-12-29T16:51:37.549Z,8.74
2022-12-29T16:54:09.150Z,8.75
2022-12-29T16:56:46.202Z,8.76
2022-12-29T16:59:32.971Z,8.77
2022-12-29T17:02:09.513Z,8.79
2022-12-29T17:04:41.038Z,8.83
2022-12-29T17:07:19.605Z,8.85
2022-12-29T17:09:51.264Z,8.88
2022-12-29T17:12:24.177Z,8.91
2022-12-29T17:14:57.822Z,8.94
2022-12-29T17:17:34.953Z,8.97
2022-12-29T17:20:08.783Z,9.00
2022-12-29T17:22:39.648Z,9.02
2022-12-29T17:25:16.173Z,9.05
2022-12-29T17:27:52.084Z,9.06
2022-12-29T17:30:29.736Z,9.08
2022-12-29T17:33:08.975Z,9.10
2022-12-29T17:35:40.173Z,9.11
2022-12-29T17:38:21.094Z,9.13
2022-12-29T17:40:52.698Z,9.15
2022-12-29T17:43:23.500Z,9.15
2022-12-29T17:45:57.840Z,9.14
2022-12-29T17:48:29.180Z,9.15
2022-12-29T17:51:00.397Z,9.15
2022-12-29T17:53:32.370Z,9.14
2022-12-29T17:56:03.326Z,9.14
2022-12-29T17:58:35.437Z,9.13
2022-12-29T18:01:08.183Z,9.12
2022-12-29T18:03:41.208Z,9.11
2022-12-29T18:06:14.687Z,9.09
2022-12-29T18:08:45.600Z,9.09
2022-12-29T18:11:25.207Z,9.10
2022-12-29T18:13:57.328Z,9.09
2022-12-29T18:16:28.310Z,9.08
2022-12-29T18:18:59.152Z,9.06
2022-12-29T18:21:30.036Z,9.06
2022-12-29T18:24:01.034Z,9.05
2022-12-29T18:26:35.736Z,9.04
2022-12-29T18:29:06.721Z,9.04
2022-12-29T18:31:38.554Z,9.03
2022-12-29T18:34:16.335Z,9.02
2022-12-29T18:36:47.374Z,9.00
2022-12-29T18:39:18.042Z,8.99
2022-12-29T18:41:48.768Z,8.97
2022-12-29T18:44:20.699Z,8.97
2022-12-29T18:46:52.314Z,8.95
2022-12-29T18:49:24.459Z,8.94
2022-12-29T18:51:55.409Z,8.92
2022-12-29T18:54:31.540Z,8.91
2022-12-29T18:57:03.206Z,8.91
2022-12-29T18:59:33.884Z,8.90
2022-12-29T19:02:04.581Z,8.89
2022-12-29T19:04:35.615Z,8.91
2022-12-29T19:07:06.369Z,8.91
2022-12-29T19:09:37.432Z,8.89
2022-12-29T19:12:14.867Z,8.88
2022-12-29T19:14:46.634Z,8.86
2022-12-29T19:17:17.453Z,8.83
2022-12-29T19:19:48.199Z,8.81
2022-12-29T19:22:19.163Z,8.78
2022-12-29T19:24:53.626Z,8.75
2022-12-29T19:27:27.218Z,8.72
2022-12-29T19:29:57.921Z,8.70
2022-12-29T19:32:28.700Z,8.66
2022-12-29T19:34:59.604Z,8.63
2022-12-29T19:37:30.290Z,8.61
2022-12-29T19:40:01.233Z,8.58
2022-12-29T19:42:32.144Z,8.56
2022-12-29T19:45:03.698Z,8.55
2022-12-29T19:47:35.175Z,8.53
2022-12-29T19:50:08.680Z,8.53
2022-12-29T19:52:39.493Z,8.52
2022-12-29T19:55:13.206Z,8.52
2022-12-29T19:57:44.934Z,8.52
2022-12-29T20:00:17.533Z,8.53
2022-12-29T20:02:48.480Z,8.55
2022-12-29T20:05:19.746Z,8.57
2022-12-29T20:07:50.510Z,8.59
2022-12-29T20:10:22.260Z,8.62
2022-12-29T20:12:53.264Z,8.65
2022-12-29T20:15:24.506Z,8.68
2022-12-29T20:18:13.330Z,8.71
2022-12-29T20:20:45.124Z,8.73
2022-12-29T20:23:15.872Z,8.75
2022-12-29T20:25:47.506Z,8.76
2022-12-29T20:28:19.087Z,8.78
2022-12-29T20:30:57.616Z,8.79
2022-12-29T20:33:29.407Z,8.81
2022-12-29T20:36:10.260Z,8.82
2022-12-29T20:38:42.183Z,8.84
2022-12-29T20:41:14.331Z,8.84
2022-12-29T20:43:45.221Z,8.85
2022-12-29T20:46:20.879Z,8.85
2022-12-29T20:48:53.575Z,8.85
2022-12-29T20:51:24.421Z,8.86
2022-12-29T20:53:55.645Z,8.88
2022-12-29T20:56:29.281Z,8.91
2022-12-29T20:59:26.381Z,8.92
2022-12-29T21:01:51.175Z,8.93
2022-12-29T21:04:22.215Z,8.96
2022-12-29T21:06:52.997Z,8.97
2022-12-29T21:09:24.090Z,8.99
2022-12-29T21:11:54.899Z,9.00
2022-12-29T21:14:25.625Z,9.02
2022-12-29T21:16:58.166Z,9.05
2022-12-29T21:19:29.148Z,9.06
2022-12-29T21:22:01.017Z,9.08
2022-12-29T21:24:31.883Z,9.10
2022-12-29T21:27:03.166Z,9.10
2022-12-29T21:29:34.337Z,9.13
2022-12-29T21:32:06.753Z,9.14
2022-12-29T21:34:38.714Z,9.14
2022-12-29T21:37:09.682Z,9.14
2022-12-29T21:39:40.605Z,9.15
2022-12-29T21:42:11.528Z,9.15
2022-12-29T21:44:56.722Z,9.16
2022-12-29T21:47:48.113Z,9.17
2022-12-29T21:50:19.186Z,9.18
2022-12-29T21:52:50.041Z,9.18
2022-12-29T21:55:20.929Z,9.18
2022-12-29T21:58:09.201Z,9.19
2022-12-29T22:00:57.918Z,9.19
2022-12-29T22:03:46.733Z,9.19
2022-12-29T22:06:35.885Z,9.20
2022-12-29T22:09:24.720Z,9.20
2022-12-29T22:12:13.099Z,9.20
2022-12-29T22:14:43.984Z,9.20
2022-12-29T22:17:17.885Z,9.21
2022-12-29T22:19:50.140Z,9.20
2022-12-29T22:22:21.088Z,9.20
2022-12-29T22:24:51.908Z,9.20
2022-12-29T22:27:22.850Z,9.18
2022-12-29T22:29:53.754Z,9.18
2022-12-29T22:32:24.597Z,9.18
2022-12-29T22:34:55.433Z,9.16
2022-12-29T22:37:26.363Z,9.15
2022-12-29T22:39:57.262Z,9.14
2022-12-29T22:42:28.082Z,9.13
2022-12-29T22:44:58.937Z,9.13
2022-12-29T22:47:29.907Z,9.13
2022-12-29T22:50:00.793Z,9.12
2022-12-29T22:52:31.832Z,9.11
2022-12-29T22:55:06.716Z,9.09
2022-12-29T22:57:38.621Z,9.07
2022-12-29T23:00:13.191Z,9.06
2022-12-29T23:02:45.466Z,9.04
2022-12-29T23:05:16.576Z,9.03
2022-12-29T23:07:47.469Z,9.03
2022-12-29T23:10:18.537Z,9.02
2022-12-29T23:12:49.269Z,9.00
2022-12-29T23:15:20.036Z,9.00
2022-12-29T23:17:50.810Z,9.00
2022-12-29T23:20:21.657Z,8.98
2022-12-29T23:22:52.459Z,8.98
2022-12-29T23:25:23.205Z,8.97
2022-12-29T23:27:54.021Z,8.97
2022-12-29T23:30:24.887Z,8.96
2022-12-29T23:32:55.708Z,8.95
2022-12-29T23:35:26.622Z,8.93
2022-12-29T23:37:57.663Z,8.92
2022-12-29T23:40:28.497Z,8.90
2022-12-29T23:42:59.275Z,8.89
2022-12-29T23:45:30.051Z,8.87
2022-12-29T23:48:00.778Z,8.86
2022-12-29T23:50:31.817Z,8.85
2022-12-29T23:53:03.432Z,8.84
2022-12-29T23:55:34.200Z,8.82
2022-12-29T23:58:05.046Z,8.80
